Toyofukumaru — JD2177 — position and weather

sailwx.info

Track history (hours):
 
Tides and Currents Weather Stations Pressure Air Temp Water Temp Dewpoint Dewpoint Depression Visibility Wind Speed Wind Dir Waves Ship Positions

Toyofukumaru

Last reported at 2015-May-23 17:29 UTC. Time now 2015-May-24 09:12 UTC.
Position N 36°41' E 141°04'.

Length 165 m; draft 6.2 m.

Type: Cargo ship. MMSI: 431200688.

Date/timePositionNaut miles runAvg speedWind from/ knotsBaromVisibWave heightAir tempDewpointWater temp
2015-May-23 17:29N 36°41' E 141°04'1920.5
2015-May-23 16:33N 36°22' E 141°03'2120.7
2015-May-23 15:33N 36°01' E 141°02'2120.6
2015-May-23 14:33N 35°41' E 140°59'2322.7
2015-May-23 13:33N 35°21' E 140°45'2322.1
2015-May-23 12:30N 35°03' E 140°26'2021.2
2015-May-23 11:33N 34°53' E 140°05'1817.7
2015-May-23 10:33N 34°54' E 139°44'1918.5
2015-May-23 09:33N 35°13' E 139°46'1212.4
2015-May-23 08:33N 35°25' E 139°43'5 5.5
2015-May-23 07:33N 35°30' E 139°45'0 0.0
2015-May-23 06:33N 35°30' E 139°45'0 0.0
2015-May-23 05:33N 35°30' E 139°45'0 0.0
2015-May-23 04:33N 35°30' E 139°45'1 1.0
2015-May-23 03:33N 35°30' E 139°44'8 7.8
2015-May-23 02:33N 35°23' E 139°39'0 0.0
2015-May-23 01:32N 35°23' E 139°39'0 0.0
2015-May-23 00:32N 35°23' E 139°39'0 0.0
2015-May-22 23:32N 35°23' E 139°39'0 0.0
2015-May-22 22:32N 35°23' E 139°39'4 4.4
2015-May-22 21:33N 35°21' E 139°43'1413.5
2015-May-22 20:33N 35°07' E 139°45'1919.3
2015-May-22 19:33N 34°54' E 139°27'52 1.9
2015-May-21 15:27N 34°29' E 138°32'3917.6
2015-May-21 13:13N 34°45' E 139°16'1219.0
2015-May-21 12:33N 34°54' E 139°26'1918.8
2015-May-21 11:33N 35°08' E 139°42'1211.6
2015-May-21 10:33N 35°19' E 139°43'5 5.3
2015-May-21 09:34N 35°23' E 139°39'0 0.0
2015-May-21 08:32N 35°23' E 139°39'0 0.0
2015-May-21 07:32N 35°23' E 139°39'0 0.0
2015-May-21 06:32N 35°23' E 139°39'0 0.0
2015-May-21 05:32N 35°23' E 139°39'0 0.0
2015-May-21 04:32N 35°23' E 139°39'0 0.0
2015-May-21 03:32N 35°23' E 139°39'1 1.5
2015-May-21 02:33N 35°23' E 139°41'1211.5
2015-May-21 01:33N 35°13' E 139°47'1817.7
2015-May-21 00:33N 34°55' E 139°43'1716.9
2015-May-20 23:34N 34°55' E 140°04'2419.9
2015-May-20 22:23N 35°06' E 140°29'1818.0
2015-May-20 21:22N 35°19' E 140°44'1517.7
2015-May-20 20:33N 35°32' E 140°53'1919.0
2015-May-20 19:33N 35°50' E 141°00'60 2.3
2015-May-19 17:31N 36°50' E 141°07'1819.2
2015-May-19 16:33N 36°31' E 141°06'2019.3
2015-May-19 15:31N 36°11' E 141°04'4019.4
2015-May-19 13:29N 35°32' E 140°54'2021.7
2015-May-19 12:32N 35°15' E 140°40'2121.3
2015-May-19 11:33N 35°01' E 140°22'2320.4
2015-May-19 10:27N 34°50' E 139°57'1517.1
2015-May-19 09:33N 34°58' E 139°42'1717.1
2015-May-19 08:33N 35°15' E 139°46'1212.4
2015-May-19 07:33N 35°27' E 139°46'3 3.2
2015-May-19 06:32N 35°30' E 139°46'0 0.0
2015-May-19 05:32N 35°30' E 139°46'0 0.0
2015-May-19 04:29N 35°30' E 139°46'0 0.0
2015-May-19 03:32N 35°30' E 139°46'2 2.0
2015-May-19 02:33N 35°30' E 139°44'7 7.1
2015-May-19 01:32N 35°23' E 139°39'0 0.0
2015-May-19 00:32N 35°23' E 139°39'0 0.0
2015-May-18 23:32N 35°23' E 139°39'0 0.2
2015-May-18 22:33N 35°24' E 139°39'10 9.8
2015-May-18 21:33N 35°16' E 139°46'1615.6
2015-May-18 20:33N 35°01' E 139°40'6319.3
2015-May-18 17:17N 34°29' E 138°34'11 0.4
2015-May-17 15:13N 34°27' E 138°21'4817.6
2015-May-17 12:31N 34°44' E 139°15'1818.9
2015-May-17 11:33N 34°58' E 139°29'1818.5
2015-May-17 10:34N 35°10' E 139°45'1312.8
2015-May-17 09:34N 35°23' E 139°41'2 1.8
2015-May-17 08:31N 35°23' E 139°39'0 0.0
2015-May-17 07:31N 35°23' E 139°39'0 0.0
2015-May-17 06:31N 35°23' E 139°39'0 0.0
2015-May-17 05:31N 35°23' E 139°39'0 0.0
2015-May-17 04:31N 35°23' E 139°39'0 0.0
2015-May-17 03:31N 35°23' E 139°39'0 0.0
2015-May-17 02:28N 35°23' E 139°39'0 0.2
2015-May-17 01:33N 35°24' E 139°39'1010.5
2015-May-17 00:33N 35°15' E 139°47'1716.5
2015-May-16 23:33N 34°59' E 139°42'1615.5
2015-May-16 22:33N 34°52' E 139°58'2020.0
2015-May-16 21:33N 35°02' E 140°20'2018.9
2015-May-16 20:28N 35°14' E 140°40'1718.8
2015-May-16 19:33N 35°29' E 140°51'1919.4
2015-May-16 18:33N 35°47' E 141°00'2020.3
2015-May-16 17:33N 36°07' E 141°02'2420.3
2015-May-16 16:22N 36°31' E 141°04'1720.2
2015-May-16 15:32N 36°48' E 141°05'2 0.1
2015-May-14 19:17N 36°50' E 141°06'1419.1
2015-May-14 18:33N 36°36' E 141°05'1919.2
2015-May-14 17:33N 36°17' E 141°03'1919.4
2015-May-14 16:33N 35°58' E 141°01'2019.5
2015-May-14 15:33N 35°39' E 140°57'2121.5
2015-May-14 14:33N 35°20' E 140°44'2220.8
2015-May-14 13:31N 35°03' E 140°27'2021.3
2015-May-14 12:33N 34°54' E 140°05'1717.1
2015-May-14 11:33N 34°55' E 139°44'1817.8
2015-May-14 10:34N 35°13' E 139°47'1111.3
2015-May-14 09:34N 35°24' E 139°43'7 7.0
2015-May-14 08:32N 35°30' E 139°46'0 0.0
2015-May-14 07:32N 35°30' E 139°46'0 0.0
2015-May-14 06:32N 35°30' E 139°46'0 0.0
2015-May-14 05:26N 35°30' E 139°46'0 0.0
2015-May-14 04:32N 35°30' E 139°46'0 0.0
2015-May-14 03:29N 35°30' E 139°46'4 4.0
2015-May-14 02:33N 35°29' E 139°42'6 5.7
2015-May-14 01:33N 35°23' E 139°39'0 0.0
2015-May-14 00:30N 35°23' E 139°39'0 0.0
2015-May-13 23:33N 35°23' E 139°39'0 0.0
2015-May-13 22:33N 35°23' E 139°39'0 0.0
2015-May-13 21:30N 35°23' E 139°39'5 4.8
2015-May-13 20:33N 35°20' E 139°43'1010.4
2015-May-13 19:33N 35°10' E 139°46'1515.0
2015-May-13 18:33N 34°58' E 139°35'2019.6
2015-May-13 17:33N 34°46' E 139°16'  
Track history (hours):
 
Tides and Currents Weather Stations Pressure Air Temp Water Temp Dewpoint Dewpoint Depression Visibility Wind Speed Wind Dir Waves Ship Positions

Toyofukumaru

Last reported at 2015-May-23 17:29 UTC. Time now 2015-May-24 09:12 UTC.
Position N 36°41' E 141°04'.

Length 165 m; draft 6.2 m.

Type: Cargo ship. MMSI: 431200688.

Date/timePositionNaut miles runAvg speedWind from/ knotsBaromVisibWave heightAir tempDewpointWater temp
2015-May-23 17:29N 36°41' E 141°04'1920.5
2015-May-23 16:33N 36°22' E 141°03'2120.7
2015-May-23 15:33N 36°01' E 141°02'2120.6
2015-May-23 14:33N 35°41' E 140°59'2322.7
2015-May-23 13:33N 35°21' E 140°45'2322.1
2015-May-23 12:30N 35°03' E 140°26'2021.2
2015-May-23 11:33N 34°53' E 140°05'1817.7
2015-May-23 10:33N 34°54' E 139°44'1918.5
2015-May-23 09:33N 35°13' E 139°46'1212.4
2015-May-23 08:33N 35°25' E 139°43'5 5.5
2015-May-23 07:33N 35°30' E 139°45'0 0.0
2015-May-23 06:33N 35°30' E 139°45'0 0.0
2015-May-23 05:33N 35°30' E 139°45'0 0.0
2015-May-23 04:33N 35°30' E 139°45'1 1.0
2015-May-23 03:33N 35°30' E 139°44'8 7.8
2015-May-23 02:33N 35°23' E 139°39'0 0.0
2015-May-23 01:32N 35°23' E 139°39'0 0.0
2015-May-23 00:32N 35°23' E 139°39'0 0.0
2015-May-22 23:32N 35°23' E 139°39'0 0.0
2015-May-22 22:32N 35°23' E 139°39'4 4.4
2015-May-22 21:33N 35°21' E 139°43'1413.5
2015-May-22 20:33N 35°07' E 139°45'1919.3
2015-May-22 19:33N 34°54' E 139°27'52 1.9
2015-May-21 15:27N 34°29' E 138°32'3917.6
2015-May-21 13:13N 34°45' E 139°16'1219.0
2015-May-21 12:33N 34°54' E 139°26'1918.8
2015-May-21 11:33N 35°08' E 139°42'1211.6
2015-May-21 10:33N 35°19' E 139°43'5 5.3
2015-May-21 09:34N 35°23' E 139°39'0 0.0
2015-May-21 08:32N 35°23' E 139°39'0 0.0
2015-May-21 07:32N 35°23' E 139°39'0 0.0
2015-May-21 06:32N 35°23' E 139°39'0 0.0
2015-May-21 05:32N 35°23' E 139°39'0 0.0
2015-May-21 04:32N 35°23' E 139°39'0 0.0
2015-May-21 03:32N 35°23' E 139°39'1 1.5
2015-May-21 02:33N 35°23' E 139°41'1211.5
2015-May-21 01:33N 35°13' E 139°47'1817.7
2015-May-21 00:33N 34°55' E 139°43'1716.9
2015-May-20 23:34N 34°55' E 140°04'2419.9
2015-May-20 22:23N 35°06' E 140°29'1818.0
2015-May-20 21:22N 35°19' E 140°44'1517.7
2015-May-20 20:33N 35°32' E 140°53'1919.0
2015-May-20 19:33N 35°50' E 141°00'60 2.3
2015-May-19 17:31N 36°50' E 141°07'1819.2
2015-May-19 16:33N 36°31' E 141°06'2019.3
2015-May-19 15:31N 36°11' E 141°04'4019.4
2015-May-19 13:29N 35°32' E 140°54'2021.7
2015-May-19 12:32N 35°15' E 140°40'2121.3
2015-May-19 11:33N 35°01' E 140°22'2320.4
2015-May-19 10:27N 34°50' E 139°57'1517.1
2015-May-19 09:33N 34°58' E 139°42'1717.1
2015-May-19 08:33N 35°15' E 139°46'1212.4
2015-May-19 07:33N 35°27' E 139°46'3 3.2
2015-May-19 06:32N 35°30' E 139°46'0 0.0
2015-May-19 05:32N 35°30' E 139°46'0 0.0
2015-May-19 04:29N 35°30' E 139°46'0 0.0
2015-May-19 03:32N 35°30' E 139°46'2 2.0
2015-May-19 02:33N 35°30' E 139°44'7 7.1
2015-May-19 01:32N 35°23' E 139°39'0 0.0
2015-May-19 00:32N 35°23' E 139°39'0 0.0
2015-May-18 23:32N 35°23' E 139°39'0 0.2
2015-May-18 22:33N 35°24' E 139°39'10 9.8
2015-May-18 21:33N 35°16' E 139°46'1615.6
2015-May-18 20:33N 35°01' E 139°40'6319.3
2015-May-18 17:17N 34°29' E 138°34'11 0.4
2015-May-17 15:13N 34°27' E 138°21'4817.6
2015-May-17 12:31N 34°44' E 139°15'1818.9
2015-May-17 11:33N 34°58' E 139°29'1818.5
2015-May-17 10:34N 35°10' E 139°45'1312.8
2015-May-17 09:34N 35°23' E 139°41'2 1.8
2015-May-17 08:31N 35°23' E 139°39'0 0.0
2015-May-17 07:31N 35°23' E 139°39'0 0.0
2015-May-17 06:31N 35°23' E 139°39'0 0.0
2015-May-17 05:31N 35°23' E 139°39'0 0.0
2015-May-17 04:31N 35°23' E 139°39'0 0.0
2015-May-17 03:31N 35°23' E 139°39'0 0.0
2015-May-17 02:28N 35°23' E 139°39'0 0.2
2015-May-17 01:33N 35°24' E 139°39'1010.5
2015-May-17 00:33N 35°15' E 139°47'1716.5
2015-May-16 23:33N 34°59' E 139°42'1615.5
2015-May-16 22:33N 34°52' E 139°58'2020.0
2015-May-16 21:33N 35°02' E 140°20'2018.9
2015-May-16 20:28N 35°14' E 140°40'1718.8
2015-May-16 19:33N 35°29' E 140°51'1919.4
2015-May-16 18:33N 35°47' E 141°00'2020.3
2015-May-16 17:33N 36°07' E 141°02'2420.3
2015-May-16 16:22N 36°31' E 141°04'1720.2
2015-May-16 15:32N 36°48' E 141°05'2 0.1
2015-May-14 19:17N 36°50' E 141°06'1419.1
2015-May-14 18:33N 36°36' E 141°05'1919.2
2015-May-14 17:33N 36°17' E 141°03'1919.4
2015-May-14 16:33N 35°58' E 141°01'2019.5
2015-May-14 15:33N 35°39' E 140°57'2121.5
2015-May-14 14:33N 35°20' E 140°44'2220.8
2015-May-14 13:31N 35°03' E 140°27'2021.3
2015-May-14 12:33N 34°54' E 140°05'1717.1
2015-May-14 11:33N 34°55' E 139°44'1817.8
2015-May-14 10:34N 35°13' E 139°47'1111.3
2015-May-14 09:34N 35°24' E 139°43'7 7.0
2015-May-14 08:32N 35°30' E 139°46'0 0.0
2015-May-14 07:32N 35°30' E 139°46'0 0.0
2015-May-14 06:32N 35°30' E 139°46'0 0.0
2015-May-14 05:26N 35°30' E 139°46'0 0.0
2015-May-14 04:32N 35°30' E 139°46'0 0.0
2015-May-14 03:29N 35°30' E 139°46'4 4.0
2015-May-14 02:33N 35°29' E 139°42'6 5.7
2015-May-14 01:33N 35°23' E 139°39'0 0.0
2015-May-14 00:30N 35°23' E 139°39'0 0.0
2015-May-13 23:33N 35°23' E 139°39'0 0.0
2015-May-13 22:33N 35°23' E 139°39'0 0.0
2015-May-13 21:30N 35°23' E 139°39'5 4.8
2015-May-13 20:33N 35°20' E 139°43'1010.4
2015-May-13 19:33N 35°10' E 139°46'1515.0
2015-May-13 18:33N 34°58' E 139°35'2019.6
2015-May-13 17:33N 34°46' E 139°16'  

Dump ship's entire track history